createdAt,value
2018-08-16T00:01:37.604Z,97241.84
2018-08-16T00:04:06.021Z,97237.80
2018-08-16T00:06:34.684Z,97239.15
2018-08-16T00:09:03.265Z,97239.16
2018-08-16T00:11:31.608Z,97238.89
2018-08-16T00:13:59.999Z,97238.08
2018-08-16T00:16:28.357Z,97236.19
2018-08-16T00:18:56.716Z,97238.08
2018-08-16T00:21:25.083Z,97240.26
2018-08-16T00:23:53.456Z,97237.53
2018-08-16T00:26:21.836Z,97232.13
2018-08-16T00:28:50.237Z,97232.13
2018-08-16T00:31:18.616Z,97231.84
2018-08-16T00:33:46.995Z,97218.63
2018-08-16T00:36:15.332Z,97226.20
2018-08-16T00:38:43.721Z,97221.89
2018-08-16T00:41:12.060Z,97220.27
2018-08-16T00:43:40.666Z,97219.20
2018-08-16T00:46:09.044Z,97220.55
2018-08-16T00:48:37.440Z,97222.98
2018-08-16T00:51:06.888Z,97222.69
2018-08-16T00:53:35.960Z,97215.17
2018-08-16T00:56:04.348Z,97208.97
2018-08-16T00:58:32.724Z,97212.19
2018-08-16T01:01:01.084Z,97213.80
2018-08-16T01:03:29.517Z,97210.83
2018-08-16T01:05:57.891Z,97211.92
2018-08-16T01:08:26.280Z,97213.25
2018-08-16T01:10:54.632Z,97211.38
2018-08-16T01:13:23.367Z,97202.20
2018-08-16T01:15:51.727Z,97204.63
2018-08-16T01:18:20.101Z,97204.91
2018-08-16T01:20:48.757Z,97208.96
2018-08-16T01:23:17.172Z,97208.67
2018-08-16T01:25:46.008Z,97211.64
2018-08-16T01:28:14.408Z,97214.59
2018-08-16T01:30:43.105Z,97216.22
2018-08-16T01:33:11.493Z,97210.27
2018-08-16T01:35:40.134Z,97210.83
2018-08-16T01:38:08.505Z,97218.63
2018-08-16T01:40:37.816Z,97212.72
2018-08-16T01:43:06.628Z,97210.55
2018-08-16T01:45:35.432Z,97212.16
2018-08-16T01:48:03.796Z,97206.78
2018-08-16T01:50:32.136Z,97204.63
2018-08-16T01:53:00.535Z,97197.89
2018-08-16T01:55:28.876Z,97195.98
2018-08-16T01:57:57.740Z,97197.88
2018-08-16T02:00:26.112Z,97194.09
2018-08-16T02:02:54.524Z,97193.84
2018-08-16T02:05:22.939Z,97196.53
2018-08-16T02:07:51.296Z,97195.98
2018-08-16T02:10:19.932Z,97195.95
2018-08-16T02:12:48.336Z,97192.39
2018-08-16T02:15:16.724Z,97190.48
2018-08-16T02:17:45.162Z,97185.32
2018-08-16T02:20:14.664Z,97184.48
2018-08-16T02:22:43.792Z,97188.02
2018-08-16T02:25:12.818Z,97189.09
2018-08-16T02:27:41.557Z,97189.35
2018-08-16T02:30:10.637Z,97184.80
2018-08-16T02:32:39.858Z,97180.24
2018-08-16T02:35:08.756Z,97181.03
2018-08-16T02:37:37.111Z,97184.27
2018-08-16T02:40:06.779Z,97175.39
2018-08-16T02:42:35.149Z,97177.77
2018-08-16T02:45:03.525Z,97174.81
2018-08-16T02:47:31.855Z,97176.70
2018-08-16T02:50:00.200Z,97172.38
2018-08-16T02:52:28.839Z,97174.55
2018-08-16T02:54:57.184Z,97173.75
2018-08-16T02:57:26.076Z,97166.98
2018-08-16T02:59:54.436Z,97167.23
2018-08-16T03:02:22.804Z,97165.61
2018-08-16T03:04:51.460Z,97167.50
2018-08-16T03:07:19.824Z,97162.89
2018-08-16T03:09:48.440Z,97156.67
2018-08-16T03:12:16.819Z,97150.77
2018-08-16T03:14:45.184Z,97159.38
2018-08-16T03:17:13.539Z,97152.09
2018-08-16T03:19:41.932Z,97149.92
2018-08-16T03:22:10.884Z,97144.59
2018-08-16T03:24:39.256Z,97141.02
2018-08-16T03:27:07.915Z,97145.40
2018-08-16T03:29:36.300Z,97143.18
2018-08-16T03:32:04.953Z,97146.41
2018-08-16T03:34:33.336Z,97139.95
2018-08-16T03:37:02.408Z,97144.50
2018-08-16T03:39:30.763Z,97141.77
2018-08-16T03:41:59.408Z,97140.94
2018-08-16T03:44:27.776Z,97139.87
2018-08-16T03:46:56.125Z,97135.32
2018-08-16T03:49:24.498Z,97134.26
2018-08-16T03:51:53.076Z,97131.92
2018-08-16T03:54:21.467Z,97131.91
2018-08-16T03:56:49.832Z,97131.08
2018-08-16T03:59:18.202Z,97130.02
2018-08-16T04:01:46.552Z,97131.88
2018-08-16T04:04:15.205Z,97131.32
2018-08-16T04:06:43.783Z,97128.62
2018-08-16T04:09:12.128Z,97126.98
2018-08-16T04:11:40.480Z,97132.05
2018-08-16T04:14:09.236Z,97132.33
2018-08-16T04:16:37.960Z,97137.16
2018-08-16T04:19:06.688Z,97129.39
2018-08-16T04:21:35.055Z,97129.90
2018-08-16T04:24:03.540Z,97130.45
2018-08-16T04:26:32.252Z,97131.77
2018-08-16T04:29:01.607Z,97133.99
2018-08-16T04:31:29.957Z,97128.10
2018-08-16T04:33:58.589Z,97129.44
2018-08-16T04:36:27.381Z,97133.73
2018-08-16T04:38:55.728Z,97130.58
2018-08-16T04:41:24.099Z,97131.91
2018-08-16T04:43:52.403Z,97124.92
2018-08-16T04:46:20.731Z,97126.03
2018-08-16T04:48:49.107Z,97129.24
2018-08-16T04:51:17.712Z,97129.78
2018-08-16T04:53:46.843Z,97127.92
2018-08-16T04:56:15.536Z,97126.86
2018-08-16T04:58:43.955Z,97126.31
2018-08-16T05:01:12.317Z,97126.05
2018-08-16T05:03:40.949Z,97126.87
2018-08-16T05:06:09.600Z,97129.84
2018-08-16T05:08:38.021Z,97125.28
2018-08-16T05:11:06.460Z,97123.95
2018-08-16T05:13:35.272Z,97125.58
2018-08-16T05:16:03.881Z,97136.63
2018-08-16T05:18:32.260Z,97130.70
2018-08-16T05:21:00.644Z,97125.84
2018-08-16T05:23:29.034Z,97130.22
2018-08-16T05:25:57.800Z,97131.29
2018-08-16T05:28:26.181Z,97126.98
2018-08-16T05:30:54.893Z,97130.73
2018-08-16T05:33:23.261Z,97135.05
2018-08-16T05:35:52.371Z,97126.72
2018-08-16T05:38:20.756Z,97130.75
2018-08-16T05:40:49.148Z,97124.27
2018-08-16T05:43:17.529Z,97125.30
2018-08-16T05:45:46.592Z,97124.73
2018-08-16T05:48:14.932Z,97130.06
2018-08-16T05:50:43.350Z,97121.31
2018-08-16T05:53:11.709Z,97120.36
2018-08-16T05:55:40.101Z,97120.09
2018-08-16T05:58:08.493Z,97111.75
2018-08-16T06:00:36.923Z,97115.70
2018-08-16T06:03:05.366Z,97115.09
2018-08-16T06:05:33.744Z,97121.29
2018-08-16T06:08:02.068Z,97123.22
2018-08-16T06:10:30.472Z,97117.91
2018-08-16T06:12:58.845Z,97115.95
2018-08-16T06:15:27.504Z,97107.82
2018-08-16T06:17:55.860Z,97105.08
2018-08-16T06:20:24.268Z,97105.95
2018-08-16T06:22:52.653Z,97108.06
2018-08-16T06:25:21.064Z,97094.27
2018-08-16T06:27:49.403Z,97084.02
2018-08-16T06:30:18.679Z,97084.44
2018-08-16T06:32:47.870Z,97080.80
2018-08-16T06:35:16.684Z,97081.53
2018-08-16T06:37:45.052Z,97073.67
2018-08-16T06:40:16.226Z,97072.27
2018-08-16T06:42:45.231Z,97075.30
2018-08-16T06:45:13.629Z,97071.59
2018-08-16T06:47:42.328Z,97075.33
2018-08-16T06:50:10.752Z,97073.94
2018-08-16T06:52:39.182Z,97063.57
2018-08-16T06:55:08.077Z,97064.02
2018-08-16T06:57:36.481Z,97067.58
2018-08-16T07:00:05.958Z,97062.53
2018-08-16T07:02:34.377Z,97060.56
2018-08-16T07:05:02.764Z,97053.80
2018-08-16T07:07:31.175Z,97058.73
2018-08-16T07:09:59.568Z,97067.24
2018-08-16T07:12:28.085Z,97061.45
2018-08-16T07:14:56.759Z,97051.56
2018-08-16T07:17:25.145Z,97045.91
2018-08-16T07:19:53.492Z,97055.42
2018-08-16T07:22:21.839Z,97058.23
2018-08-16T07:24:50.248Z,97054.45
2018-08-16T07:27:19.480Z,97058.16
2018-08-16T07:29:48.342Z,97057.67
2018-08-16T07:32:16.689Z,97054.30
2018-08-16T07:34:45.033Z,97062.89
2018-08-16T07:37:13.408Z,97050.30
2018-08-16T07:39:41.812Z,97048.74
2018-08-16T07:42:10.199Z,97048.12
2018-08-16T07:44:38.572Z,97047.20
2018-08-16T07:47:07.154Z,97046.88
2018-08-16T07:49:35.834Z,97047.02
2018-08-16T07:52:05.516Z,97041.16
2018-08-16T07:54:33.816Z,97045.99
2018-08-16T07:57:02.259Z,97048.62
2018-08-16T07:59:30.836Z,97043.94
2018-08-16T08:01:59.236Z,97051.10
2018-08-16T08:04:27.989Z,97049.28
2018-08-16T08:06:56.400Z,97055.21
2018-08-16T08:09:24.841Z,97059.52
2018-08-16T08:11:53.117Z,97058.17
2018-08-16T08:14:21.508Z,97053.24
2018-08-16T08:16:49.867Z,97056.72
2018-08-16T08:19:18.296Z,97060.44
2018-08-16T08:21:47.064Z,97055.77
2018-08-16T08:24:15.431Z,97059.88
2018-08-16T08:26:43.772Z,97054.88
2018-08-16T08:29:12.180Z,97052.59
2018-08-16T08:31:40.707Z,97049.35
2018-08-16T08:34:09.039Z,97051.61
2018-08-16T08:36:48.435Z,97045.21
2018-08-16T08:39:16.818Z,97047.34
2018-08-16T08:41:46.268Z,97044.16
2018-08-16T08:44:18.980Z,97045.56
2018-08-16T08:46:48.777Z,97042.53
2018-08-16T08:49:17.899Z,97039.53
2018-08-16T08:51:46.469Z,97044.28
2018-08-16T08:54:36.928Z,97046.51
2018-08-16T08:57:16.364Z,97044.92
2018-08-16T08:59:44.754Z,97040.60
2018-08-16T09:02:13.461Z,97038.36
2018-08-16T09:04:41.885Z,97034.70
2018-08-16T09:07:12.920Z,97037.89
2018-08-16T09:09:51.240Z,97041.83
2018-08-16T09:12:30.760Z,97031.52
2018-08-16T09:15:10.508Z,97025.20
2018-08-16T09:17:38.896Z,97024.64
2018-08-16T09:20:07.296Z,97031.72
2018-08-16T09:22:35.640Z,97029.72
2018-08-16T09:25:03.993Z,97028.03
2018-08-16T09:27:32.344Z,97020.66
2018-08-16T09:30:20.997Z,97016.80
2018-08-16T09:33:00.376Z,97010.02
2018-08-16T09:35:29.131Z,97018.73
2018-08-16T09:37:57.829Z,97016.19
2018-08-16T09:40:26.224Z,97007.73
2018-08-16T09:42:54.596Z,97013.15
2018-08-16T09:45:34.205Z,97020.53
2018-08-16T09:48:14.137Z,97015.37
2018-08-16T09:50:42.808Z,97004.94
2018-08-16T09:53:11.164Z,97002.63
2018-08-16T09:55:40.276Z,96995.70
2018-08-16T09:58:08.668Z,97001.76
2018-08-16T10:00:43.253Z,97006.30
2018-08-16T10:03:11.600Z,96997.69
2018-08-16T10:05:40.002Z,96998.33
2018-08-16T10:08:08.428Z,96995.88
2018-08-16T10:10:36.871Z,97000.95
2018-08-16T10:13:05.329Z,96987.89
2018-08-16T10:15:34.712Z,96991.70
2018-08-16T10:18:03.545Z,96990.95
2018-08-16T10:20:32.285Z,96991.45
2018-08-16T10:23:00.696Z,96993.95
2018-08-16T10:25:29.061Z,96993.65
2018-08-16T10:27:57.430Z,97000.82
2018-08-16T10:30:25.793Z,96988.34
2018-08-16T10:32:54.152Z,96982.20
2018-08-16T10:35:22.512Z,96969.91
2018-08-16T10:37:50.836Z,96962.56
2018-08-16T10:40:19.188Z,96960.30
2018-08-16T10:42:47.552Z,96968.52
2018-08-16T10:45:15.916Z,96960.63
2018-08-16T10:47:44.263Z,96958.98
2018-08-16T10:50:12.604Z,96963.46
2018-08-16T10:52:42.612Z,96961.78
2018-08-16T10:55:10.989Z,96952.93
2018-08-16T10:57:39.501Z,96954.33
2018-08-16T11:00:08.527Z,96947.90
2018-08-16T11:02:38.369Z,96962.03
2018-08-16T11:05:06.948Z,96961.69
2018-08-16T11:07:36.090Z,96947.85
2018-08-16T11:10:04.892Z,96943.30
2018-08-16T11:12:33.245Z,96940.56
2018-08-16T11:15:01.597Z,96942.78
2018-08-16T11:17:30.574Z,96946.52
2018-08-16T11:19:58.995Z,96946.44
2018-08-16T11:22:27.346Z,96944.77
2018-08-16T11:24:56.443Z,96932.30
2018-08-16T11:27:24.791Z,96936.48
2018-08-16T11:29:53.128Z,96927.11
2018-08-16T11:32:21.496Z,96924.43
2018-08-16T11:34:49.865Z,96931.16
2018-08-16T11:37:18.233Z,96923.14
2018-08-16T11:39:46.560Z,96916.52
2018-08-16T11:42:14.896Z,96921.55
2018-08-16T11:44:43.280Z,96918.48
2018-08-16T11:47:11.635Z,96911.42
2018-08-16T11:49:40.012Z,96904.61
2018-08-16T11:52:08.392Z,96902.95
2018-08-16T11:54:36.745Z,96900.21
2018-08-16T11:57:05.489Z,96899.50
2018-08-16T11:59:34.312Z,96895.77
2018-08-16T12:02:03.447Z,96896.66
2018-08-16T12:04:32.239Z,96885.78
2018-08-16T12:07:00.628Z,96891.61
2018-08-16T12:09:30.578Z,96887.88
2018-08-16T12:11:58.989Z,96886.07
2018-08-16T12:14:27.374Z,96885.98
2018-08-16T12:16:56.736Z,96879.97
2018-08-16T12:19:25.192Z,96879.81
2018-08-16T12:21:53.512Z,96876.13
2018-08-16T12:24:21.860Z,96876.37
2018-08-16T12:26:50.192Z,96878.79
2018-08-16T12:29:18.541Z,96873.02
2018-08-16T12:31:46.918Z,96867.98
2018-08-16T12:34:15.268Z,96876.28
2018-08-16T12:36:43.604Z,96864.28
2018-08-16T12:39:11.959Z,96875.66
2018-08-16T12:41:40.311Z,96872.50
2018-08-16T12:44:08.711Z,96871.98
2018-08-16T12:46:37.269Z,96865.97
2018-08-16T12:49:05.719Z,96861.59
2018-08-16T12:51:34.250Z,96866.19
2018-08-16T12:54:02.660Z,96860.36
2018-08-16T12:56:31.054Z,96874.20
2018-08-16T12:59:00.369Z,96864.27
2018-08-16T13:01:28.800Z,96854.01
2018-08-16T13:03:57.215Z,96853.67
2018-08-16T13:06:25.577Z,96849.12
2018-08-16T13:08:53.923Z,96853.40
2018-08-16T13:11:22.424Z,96849.52
2018-08-16T13:13:50.820Z,96845.78
2018-08-16T13:16:19.187Z,96839.02
2018-08-16T13:18:47.548Z,96837.37
2018-08-16T13:21:15.924Z,96834.83
2018-08-16T13:23:44.392Z,96834.73
2018-08-16T13:26:12.669Z,96833.80
2018-08-16T13:28:41.048Z,96836.49
2018-08-16T13:31:09.497Z,96834.89
2018-08-16T13:33:37.804Z,96828.21
2018-08-16T13:36:06.186Z,96833.67
2018-08-16T13:38:35.019Z,96829.81
2018-08-16T13:41:03.402Z,96822.23
2018-08-16T13:43:31.792Z,96821.57
2018-08-16T13:46:00.165Z,96818.36
2018-08-16T13:48:28.576Z,96824.06
2018-08-16T13:50:56.848Z,96815.89
2018-08-16T13:53:25.195Z,96808.77
2018-08-16T13:55:53.552Z,96805.84
2018-08-16T13:58:21.885Z,96798.34
2018-08-16T14:00:50.233Z,96797.19
2018-08-16T14:03:19.404Z,96794.55
2018-08-16T14:05:47.790Z,96793.69
2018-08-16T14:08:16.120Z,96796.61
2018-08-16T14:10:46.343Z,96788.22
2018-08-16T14:13:15.989Z,96791.75
2018-08-16T14:15:44.476Z,96789.66
2018-08-16T14:18:13.057Z,96787.58
2018-08-16T14:20:41.459Z,96782.96
2018-08-16T14:23:09.936Z,96776.01
2018-08-16T14:25:38.485Z,96784.45
2018-08-16T14:28:06.876Z,96779.33
2018-08-16T14:30:35.248Z,96778.02
2018-08-16T14:33:03.609Z,96769.61
2018-08-16T14:35:31.953Z,96768.38
2018-08-16T14:38:00.295Z,96768.11
2018-08-16T14:40:28.656Z,96772.59
2018-08-16T14:42:57.403Z,96764.30
2018-08-16T14:45:25.782Z,96765.66
2018-08-16T14:47:54.140Z,96765.16
2018-08-16T14:50:22.523Z,96764.25
2018-08-16T14:52:51.177Z,96759.94
2018-08-16T14:55:19.636Z,96759.53
2018-08-16T14:57:47.992Z,96756.38
2018-08-16T15:00:16.362Z,96750.98
2018-08-16T15:02:44.700Z,96751.03
2018-08-16T15:05:13.053Z,96745.70
2018-08-16T15:07:42.235Z,96750.08
2018-08-16T15:10:10.600Z,96736.80
2018-08-16T15:12:38.929Z,96741.45
2018-08-16T15:15:07.300Z,96739.63
2018-08-16T15:17:35.688Z,96730.73
2018-08-16T15:20:04.162Z,96742.97
2018-08-16T15:22:32.512Z,96735.22
2018-08-16T15:25:00.841Z,96733.30
2018-08-16T15:27:29.224Z,96731.84
2018-08-16T15:29:57.585Z,96735.55
2018-08-16T15:32:25.957Z,96725.27
2018-08-16T15:34:54.283Z,96722.83
2018-08-16T15:37:23.858Z,96728.06
2018-08-16T15:39:52.245Z,96728.93
2018-08-16T15:42:20.620Z,96724.86
2018-08-16T15:44:49.638Z,96723.26
2018-08-16T15:47:18.048Z,96716.36
2018-08-16T15:49:46.420Z,96720.35
2018-08-16T15:52:15.584Z,96715.36
2018-08-16T15:54:43.912Z,96718.31
2018-08-16T15:57:12.444Z,96716.27
2018-08-16T15:59:41.239Z,96712.33
2018-08-16T16:02:10.644Z,96710.94
2018-08-16T16:04:39.000Z,96720.08
2018-08-16T16:07:07.630Z,96714.20
2018-08-16T16:09:35.972Z,96713.48
2018-08-16T16:12:04.367Z,96713.19
2018-08-16T16:14:32.729Z,96710.58
2018-08-16T16:17:01.142Z,96713.58
2018-08-16T16:19:29.545Z,96713.75
2018-08-16T16:21:57.893Z,96718.23
2018-08-16T16:24:26.248Z,96711.91
2018-08-16T16:26:54.608Z,96710.75
2018-08-16T16:29:22.933Z,96704.64
2018-08-16T16:31:51.289Z,96698.88
2018-08-16T16:34:19.632Z,96696.70
2018-08-16T16:36:48.300Z,96695.13
2018-08-16T16:39:16.677Z,96692.75
2018-08-16T16:41:45.040Z,96695.41
2018-08-16T16:44:13.424Z,96693.23
2018-08-16T16:46:41.833Z,96693.58
2018-08-16T16:49:10.213Z,96685.03
2018-08-16T16:51:38.588Z,96684.28
2018-08-16T16:54:07.141Z,96693.75
2018-08-16T16:56:35.580Z,96688.23
2018-08-16T16:59:03.977Z,96681.29
2018-08-16T17:01:32.416Z,96674.64
2018-08-16T17:04:00.804Z,96681.14
2018-08-16T17:06:29.171Z,96677.16
2018-08-16T17:08:57.538Z,96670.50
2018-08-16T17:11:25.928Z,96671.07
2018-08-16T17:13:54.572Z,96674.80
2018-08-16T17:16:23.704Z,96678.41
2018-08-16T17:18:52.087Z,96679.91
2018-08-16T17:21:20.452Z,96678.11
2018-08-16T17:23:48.780Z,96673.42
2018-08-16T17:26:17.171Z,96678.04
2018-08-16T17:28:46.080Z,96673.24
2018-08-16T17:31:14.433Z,96672.02
2018-08-16T17:33:42.801Z,96664.64
2018-08-16T17:36:11.145Z,96669.16
2018-08-16T17:38:39.521Z,96662.67
2018-08-16T17:41:08.016Z,96665.16
2018-08-16T17:43:37.452Z,96665.00
2018-08-16T17:46:06.400Z,96668.83
2018-08-16T17:48:34.788Z,96667.43
2018-08-16T17:51:03.148Z,96668.91
2018-08-16T17:53:31.504Z,96665.48
2018-08-16T17:56:00.076Z,96661.84
2018-08-16T17:58:28.448Z,96661.19
2018-08-16T18:00:56.876Z,96658.50
2018-08-16T18:03:25.192Z,96658.34
2018-08-16T18:05:53.591Z,96665.13
2018-08-16T18:08:21.988Z,96664.77
2018-08-16T18:10:50.350Z,96663.83
2018-08-16T18:13:18.745Z,96662.81
2018-08-16T18:15:47.112Z,96666.86
2018-08-16T18:18:15.472Z,96667.75
2018-08-16T18:20:43.807Z,96664.89
2018-08-16T18:23:12.189Z,96670.63
2018-08-16T18:25:41.405Z,96666.95
2018-08-16T18:28:09.780Z,96671.69
2018-08-16T18:30:38.152Z,96676.61
2018-08-16T18:33:07.540Z,96680.23
2018-08-16T18:35:36.008Z,96681.44
2018-08-16T18:38:04.397Z,96681.98
2018-08-16T18:40:32.780Z,96688.83
2018-08-16T18:43:01.144Z,96692.52
2018-08-16T18:45:30.764Z,96692.58
2018-08-16T18:47:59.188Z,96697.14
2018-08-16T18:50:27.655Z,96696.95
2018-08-16T18:52:56.012Z,96702.55
2018-08-16T18:55:25.253Z,96705.22
2018-08-16T18:57:53.645Z,96704.63
2018-08-16T19:00:21.989Z,96701.84
2018-08-16T19:02:50.357Z,96706.06
2018-08-16T19:05:18.775Z,96707.12
2018-08-16T19:07:47.145Z,96712.42
2018-08-16T19:10:16.493Z,96712.18
2018-08-16T19:12:45.940Z,96714.52
2018-08-16T19:15:14.299Z,96716.44
2018-08-16T19:17:42.717Z,96720.83
2018-08-16T19:20:11.108Z,96721.09
2018-08-16T19:22:39.547Z,96720.23
2018-08-16T19:25:10.442Z,96717.94
2018-08-16T19:27:38.907Z,96725.59
2018-08-16T19:30:07.302Z,96723.10
2018-08-16T19:32:35.819Z,96724.47
2018-08-16T19:35:04.668Z,96720.97
2018-08-16T19:37:33.468Z,96723.02
2018-08-16T19:40:01.833Z,96720.72
2018-08-16T19:42:30.227Z,96723.30
2018-08-16T19:44:58.591Z,96719.33
2018-08-16T19:47:26.956Z,96719.31
2018-08-16T19:49:55.645Z,96726.38
2018-08-16T19:52:23.988Z,96728.91
2018-08-16T19:54:52.329Z,96731.52
2018-08-16T19:57:20.676Z,96732.88
2018-08-16T19:59:49.042Z,96729.21
2018-08-16T20:02:17.363Z,96729.06
2018-08-16T20:04:45.812Z,96721.06
2018-08-16T20:07:14.088Z,96722.98
2018-08-16T20:09:42.496Z,96721.47
2018-08-16T20:12:11.328Z,96720.67
2018-08-16T20:14:39.708Z,96723.42
2018-08-16T20:17:08.408Z,96717.63
2018-08-16T20:19:36.860Z,96719.70
2018-08-16T20:22:10.941Z,96716.77
2018-08-16T20:24:39.292Z,96717.10
2018-08-16T20:27:07.322Z,96717.83
2018-08-16T20:29:35.692Z,96726.95
2018-08-16T20:32:04.075Z,96721.14
2018-08-16T20:34:32.440Z,96726.12
2018-08-16T20:37:00.820Z,96723.61
2018-08-16T20:39:29.192Z,96730.98
2018-08-16T20:41:57.569Z,96727.05
2018-08-16T20:44:26.089Z,96723.98
2018-08-16T20:46:54.468Z,96723.92
2018-08-16T20:49:22.911Z,96728.77
2018-08-16T20:51:51.252Z,96720.86
2018-08-16T20:54:19.656Z,96719.59
2018-08-16T20:56:48.131Z,96717.73
2018-08-16T20:59:17.480Z,96719.03
2018-08-16T21:01:45.808Z,96737.13
2018-08-16T21:04:14.152Z,96737.57
2018-08-16T21:06:42.845Z,96732.38
2018-08-16T21:09:11.724Z,96735.61
2018-08-16T21:11:40.169Z,96732.59
2018-08-16T21:14:08.783Z,96732.59
2018-08-16T21:16:37.132Z,96726.63
2018-08-16T21:19:05.499Z,96735.52
2018-08-16T21:21:33.886Z,96732.95
2018-08-16T21:24:02.227Z,96732.59
2018-08-16T21:26:30.569Z,96721.80
2018-08-16T21:28:58.940Z,96723.63
2018-08-16T21:31:27.292Z,96722.46
2018-08-16T21:33:55.656Z,96718.58
2018-08-16T21:36:24.345Z,96727.89
2018-08-16T21:38:52.703Z,96719.73
2018-08-16T21:41:21.059Z,96720.38
2018-08-16T21:43:49.788Z,96719.83
2018-08-16T21:46:18.444Z,96712.53
2018-08-16T21:48:47.108Z,96715.08
2018-08-16T21:51:15.439Z,96719.33
2018-08-16T21:53:43.801Z,96708.70
2018-08-16T21:56:12.712Z,96707.56
2018-08-16T21:58:41.108Z,96710.92
2018-08-16T22:01:09.496Z,96712.53
2018-08-16T22:03:37.860Z,96717.63
2018-08-16T22:06:11.321Z,96720.56
2018-08-16T22:08:49.769Z,96721.67
2018-08-16T22:11:18.227Z,96726.42
2018-08-16T22:13:46.637Z,96720.64
2018-08-16T22:16:15.861Z,96727.66
2018-08-16T22:18:44.260Z,96726.08
2018-08-16T22:21:12.660Z,96728.20
2018-08-16T22:23:41.635Z,96730.02
2018-08-16T22:26:10.056Z,96730.63
2018-08-16T22:28:38.391Z,96726.33
2018-08-16T22:31:06.943Z,96737.13
2018-08-16T22:33:35.292Z,96737.58
2018-08-16T22:36:03.644Z,96731.28
2018-08-16T22:38:31.977Z,96740.52
2018-08-16T22:41:00.355Z,96744.36
2018-08-16T22:43:28.712Z,96736.11
2018-08-16T22:45:57.120Z,96735.10
2018-08-16T22:48:25.712Z,96733.26
2018-08-16T22:50:54.115Z,96736.23
2018-08-16T22:53:22.437Z,96735.58
2018-08-16T22:55:50.796Z,96734.31
2018-08-16T22:58:19.808Z,96733.88
2018-08-16T23:00:48.152Z,96736.25
2018-08-16T23:03:17.400Z,96735.52
2018-08-16T23:05:45.776Z,96735.91
2018-08-16T23:08:14.182Z,96732.28
2018-08-16T23:10:42.536Z,96729.00
2018-08-16T23:13:10.871Z,96726.59
2018-08-16T23:15:39.248Z,96727.94
2018-08-16T23:18:07.700Z,96724.17
2018-08-16T23:20:36.057Z,96727.69
2018-08-16T23:23:04.413Z,96721.38
2018-08-16T23:25:32.791Z,96722.22
2018-08-16T23:28:01.428Z,96719.57
2018-08-16T23:30:29.776Z,96718.71
2018-08-16T23:32:58.104Z,96719.36
2018-08-16T23:35:26.488Z,96719.59
2018-08-16T23:37:54.861Z,96722.73
2018-08-16T23:40:23.260Z,96720.55
2018-08-16T23:42:51.644Z,96719.52
2018-08-16T23:45:20.283Z,96721.22
2018-08-16T23:47:59.861Z,96717.36
2018-08-16T23:50:28.472Z,96717.36
2018-08-16T23:52:56.833Z,96722.69
2018-08-16T23:55:25.249Z,96722.52
2018-08-16T23:57:53.617Z,96728.88
